createdAt,value
2018-06-08T00:02:01.583Z,99.90
2018-06-08T00:04:30.351Z,99.90
2018-06-08T00:06:59.032Z,99.90
2018-06-08T00:09:28.333Z,99.90
2018-06-08T00:11:56.548Z,99.90
2018-06-08T00:14:26.842Z,99.90
2018-06-08T00:16:56.096Z,99.90
2018-06-08T00:19:24.214Z,99.90
2018-06-08T00:21:52.457Z,99.90
2018-06-08T00:24:21.163Z,99.90
2018-06-08T00:26:49.366Z,99.90
2018-06-08T00:29:17.709Z,99.90
2018-06-08T00:31:46.929Z,99.90
2018-06-08T00:34:15.900Z,99.90
2018-06-08T00:36:45.537Z,99.90
2018-06-08T00:39:14.528Z,99.90
2018-06-08T00:41:43.693Z,99.90
2018-06-08T00:44:11.962Z,99.90
2018-06-08T00:46:40.115Z,99.90
2018-06-08T00:49:08.815Z,99.90
2018-06-08T00:51:37.510Z,99.90
2018-06-08T00:54:06.671Z,99.90
2018-06-08T00:59:09.697Z,99.90
2018-06-08T01:01:38.629Z,99.90
2018-06-08T01:04:07.525Z,99.90
2018-06-08T01:09:10.478Z,99.90
2018-06-08T01:11:38.668Z,99.90
2018-06-08T01:14:06.907Z,99.90
2018-06-08T01:16:35.328Z,99.90
2018-06-08T01:19:04.707Z,99.90
2018-06-08T01:21:33.371Z,99.90
2018-06-08T01:24:01.680Z,99.90
2018-06-08T01:26:29.745Z,99.90
2018-06-08T01:29:00.935Z,99.90
2018-06-08T01:31:29.380Z,99.90
2018-06-08T01:33:57.472Z,99.90
2018-06-08T01:36:26.109Z,99.90
2018-06-08T01:38:55.213Z,99.90
2018-06-08T01:41:23.896Z,99.90
2018-06-08T01:43:52.671Z,99.90
2018-06-08T01:46:20.962Z,99.90
2018-06-08T01:48:49.957Z,99.90
2018-06-08T01:51:18.021Z,99.90
2018-06-08T01:53:46.335Z,99.90
2018-06-08T01:56:14.524Z,99.90
2018-06-08T01:58:42.711Z,99.90
2018-06-08T02:01:10.981Z,99.90
2018-06-08T02:03:39.185Z,99.90
2018-06-08T02:06:07.451Z,99.90
2018-06-08T02:08:35.887Z,99.90
2018-06-08T02:11:04.036Z,99.90
2018-06-08T02:13:32.112Z,99.90
2018-06-08T02:16:00.274Z,99.90
2018-06-08T02:18:28.602Z,99.90
2018-06-08T02:20:57.080Z,99.90
2018-06-08T02:23:25.735Z,99.90
2018-06-08T02:25:54.572Z,99.90
2018-06-08T02:28:22.807Z,99.90
2018-06-08T02:30:51.134Z,99.90
2018-06-08T02:33:20.179Z,99.90
2018-06-08T02:36:03.175Z,99.90
2018-06-08T02:38:32.036Z,99.90
2018-06-08T02:41:04.695Z,99.90
2018-06-08T02:46:01.545Z,99.90
2018-06-08T02:48:29.698Z,99.90
2018-06-08T02:50:58.152Z,99.90
2018-06-08T02:53:26.433Z,99.90
2018-06-08T02:55:54.802Z,99.90
2018-06-08T02:58:23.081Z,99.90
2018-06-08T03:00:51.313Z,99.90
2018-06-08T03:05:47.703Z,99.90
2018-06-08T03:08:15.965Z,99.90
2018-06-08T03:10:44.326Z,99.90
2018-06-08T03:13:12.510Z,99.90
2018-06-08T03:15:41.001Z,99.90
2018-06-08T03:18:09.611Z,99.90
2018-06-08T03:20:37.935Z,99.90
2018-06-08T03:23:06.237Z,99.90
2018-06-08T03:25:34.419Z,99.90
2018-06-08T03:28:03.300Z,99.90
2018-06-08T03:30:31.715Z,99.90
2018-06-08T03:33:00.312Z,99.90
2018-06-08T03:35:28.470Z,99.90
2018-06-08T03:37:56.929Z,99.90
2018-06-08T03:40:25.102Z,99.90
2018-06-08T03:42:55.399Z,99.90
2018-06-08T03:45:24.460Z,99.90
2018-06-08T03:47:54.092Z,99.90
2018-06-08T03:50:24.260Z,99.90
2018-06-08T03:52:52.564Z,99.90
2018-06-08T03:55:22.362Z,99.90
2018-06-08T03:57:52.625Z,99.90
2018-06-08T04:00:21.348Z,99.90
2018-06-08T04:02:49.574Z,99.90
2018-06-08T04:05:18.058Z,99.90
2018-06-08T04:07:46.427Z,99.90
2018-06-08T04:12:42.514Z,99.90
2018-06-08T04:15:11.302Z,99.90
2018-06-08T04:17:40.338Z,99.90
2018-06-08T04:20:08.601Z,99.90
2018-06-08T04:22:36.907Z,99.90
2018-06-08T04:25:05.727Z,99.90
2018-06-08T04:27:34.275Z,99.90
2018-06-08T04:30:02.907Z,99.90
2018-06-08T04:32:31.620Z,99.90
2018-06-08T04:39:56.318Z,99.90
2018-06-08T04:42:24.562Z,99.90
2018-06-08T04:44:53.908Z,99.90
2018-06-08T04:49:50.746Z,99.90
2018-06-08T04:52:19.203Z,99.90
2018-06-08T04:54:48.514Z,99.90
2018-06-08T04:57:17.133Z,99.90
2018-06-08T04:59:45.787Z,99.90
2018-06-08T05:04:42.032Z,99.90
2018-06-08T05:07:11.064Z,99.90
2018-06-08T05:09:39.393Z,99.90
2018-06-08T05:12:07.615Z,99.90
2018-06-08T05:14:35.896Z,99.90
2018-06-08T05:19:33.218Z,99.90
2018-06-08T05:22:01.668Z,99.90
2018-06-08T05:24:29.758Z,99.90
2018-06-08T05:26:58.316Z,99.90
2018-06-08T05:29:26.994Z,99.90
2018-06-08T05:31:57.264Z,99.90
2018-06-08T05:34:25.760Z,99.90
2018-06-08T05:36:53.846Z,99.90
2018-06-08T05:39:22.028Z,99.90
2018-06-08T05:44:19.635Z,99.90
2018-06-08T05:46:48.883Z,99.90
2018-06-08T05:49:17.119Z,99.90
2018-06-08T05:51:45.565Z,99.90
2018-06-08T05:54:13.900Z,99.90
2018-06-08T05:56:42.111Z,99.90
2018-06-08T05:59:11.623Z,99.90
2018-06-08T06:01:39.764Z,99.90
2018-06-08T06:04:08.044Z,99.90
2018-06-08T06:06:36.299Z,99.90
2018-06-08T06:09:08.397Z,99.90
2018-06-08T06:11:36.957Z,99.90
2018-06-08T06:14:05.570Z,99.90
2018-06-08T06:16:36.953Z,99.90
2018-06-08T06:19:05.698Z,99.90
2018-06-08T06:21:34.599Z,99.90
2018-06-08T06:24:03.520Z,99.90
2018-06-08T06:26:32.534Z,99.90
2018-06-08T06:29:00.882Z,99.90
2018-06-08T06:31:30.126Z,99.90
2018-06-08T06:33:58.624Z,99.90
2018-06-08T06:36:27.610Z,99.90
2018-06-08T06:38:56.691Z,99.90
2018-06-08T06:41:25.066Z,99.90
2018-06-08T06:43:53.356Z,99.90
2018-06-08T06:46:21.767Z,99.90
2018-06-08T06:48:51.565Z,99.90
2018-06-08T06:53:47.984Z,99.90
2018-06-08T06:56:16.733Z,99.90
2018-06-08T06:58:45.123Z,99.90
2018-06-08T07:01:13.666Z,99.90
2018-06-08T07:06:17.538Z,99.90
2018-06-08T07:08:46.604Z,99.90
2018-06-08T07:11:17.959Z,99.90
2018-06-08T07:13:48.874Z,99.90
2018-06-08T07:16:17.064Z,99.90
2018-06-08T07:18:46.392Z,99.90
2018-06-08T07:21:15.966Z,99.90
2018-06-08T07:23:44.387Z,99.90
2018-06-08T07:26:14.394Z,99.90
2018-06-08T07:28:42.910Z,99.90
2018-06-08T07:31:12.308Z,99.90
2018-06-08T07:33:40.719Z,99.90
2018-06-08T07:36:08.885Z,99.90
2018-06-08T07:38:37.039Z,99.90
2018-06-08T07:41:06.828Z,99.90
2018-06-08T07:43:34.962Z,99.90
2018-06-08T07:46:03.230Z,99.90
2018-06-08T07:48:32.218Z,99.90
2018-06-08T07:51:03.731Z,99.90
2018-06-08T07:53:31.891Z,99.90
2018-06-08T07:56:00.141Z,99.90
2018-06-08T07:58:28.785Z,99.90
2018-06-08T08:03:25.288Z,99.90
2018-06-08T08:05:53.968Z,99.90
2018-06-08T08:08:22.545Z,99.90
2018-06-08T08:10:51.100Z,99.90
2018-06-08T08:13:20.123Z,97.40
2018-06-08T08:15:48.601Z,97.50
2018-06-08T08:18:18.607Z,95.90
2018-06-08T08:20:47.362Z,94.60
2018-06-08T08:23:15.592Z,94.90
2018-06-08T08:25:45.191Z,94.60
2018-06-08T08:28:13.686Z,93.70
2018-06-08T08:30:45.570Z,93.00
2018-06-08T08:33:14.086Z,93.00
2018-06-08T08:35:42.977Z,92.60
2018-06-08T08:38:11.207Z,92.50
2018-06-08T08:40:39.698Z,93.30
2018-06-08T08:43:13.827Z,93.60
2018-06-08T08:45:43.704Z,95.00
2018-06-08T08:48:12.353Z,94.50
2018-06-08T08:50:40.809Z,94.40
2018-06-08T08:55:38.944Z,92.30
2018-06-08T08:58:07.848Z,91.80
2018-06-08T09:00:35.903Z,91.90
2018-06-08T09:03:04.753Z,90.70
2018-06-08T09:05:33.034Z,88.80
2018-06-08T09:08:02.002Z,89.70
2018-06-08T09:10:30.742Z,86.70
2018-06-08T09:12:58.916Z,85.20
2018-06-08T09:15:28.247Z,86.00
2018-06-08T09:17:56.532Z,87.40
2018-06-08T09:22:54.590Z,88.70
2018-06-08T09:25:22.770Z,89.10
2018-06-08T09:27:52.252Z,89.30
2018-06-08T09:30:20.642Z,85.30
2018-06-08T09:32:50.278Z,83.30
2018-06-08T09:35:19.339Z,84.00
2018-06-08T09:37:47.754Z,82.70
2018-06-08T09:40:17.027Z,80.40
2018-06-08T09:42:47.173Z,80.40
2018-06-08T09:45:15.416Z,81.30
2018-06-08T09:47:43.808Z,82.70
2018-06-08T09:50:14.727Z,80.20
2018-06-08T09:52:43.219Z,81.90
2018-06-08T09:57:44.790Z,80.70
2018-06-08T10:00:26.689Z,80.30
2018-06-08T10:02:55.344Z,83.40
2018-06-08T10:05:26.200Z,85.10
2018-06-08T10:07:56.752Z,85.80
2018-06-08T10:10:26.236Z,86.20
2018-06-08T10:12:55.220Z,85.30
2018-06-08T10:15:23.552Z,87.10
2018-06-08T10:20:21.196Z,87.10
2018-06-08T10:22:50.357Z,86.90
2018-06-08T10:25:18.874Z,87.20
2018-06-08T10:27:49.330Z,87.00
2018-06-08T10:30:21.150Z,89.50
2018-06-08T10:32:53.885Z,88.50
2018-06-08T10:35:26.898Z,88.60
2018-06-08T10:37:57.086Z,87.00
2018-06-08T10:40:29.151Z,87.40
2018-06-08T10:43:02.237Z,87.40
2018-06-08T10:45:31.899Z,87.90
2018-06-08T10:48:04.538Z,87.30
2018-06-08T10:50:33.352Z,87.00
2018-06-08T10:53:01.647Z,85.90
2018-06-08T10:55:32.150Z,86.60
2018-06-08T10:58:00.757Z,87.50
2018-06-08T11:02:58.790Z,86.70
2018-06-08T11:05:28.638Z,86.10
2018-06-08T11:07:57.330Z,86.80
2018-06-08T11:10:26.478Z,84.80
2018-06-08T11:12:56.007Z,83.70
2018-06-08T11:15:24.140Z,84.20
2018-06-08T11:17:52.505Z,85.40
2018-06-08T11:20:20.767Z,86.00
2018-06-08T11:22:49.101Z,84.90
2018-06-08T11:25:17.413Z,84.70
2018-06-08T11:27:46.074Z,85.20
2018-06-08T11:30:14.452Z,84.70
2018-06-08T11:32:43.526Z,84.00
2018-06-08T11:35:11.950Z,84.00
2018-06-08T11:37:40.696Z,83.30
2018-06-08T11:40:09.723Z,82.90
2018-06-08T11:42:40.100Z,82.50
2018-06-08T11:45:08.363Z,82.80
2018-06-08T11:47:40.059Z,84.20
2018-06-08T11:50:09.083Z,85.00
2018-06-08T11:52:37.741Z,84.10
2018-06-08T11:55:06.127Z,83.10
2018-06-08T11:57:36.214Z,83.60
2018-06-08T12:00:07.102Z,84.40
2018-06-08T12:02:35.565Z,85.00
2018-06-08T12:05:04.011Z,85.20
2018-06-08T12:07:33.107Z,85.30
2018-06-08T12:10:04.173Z,85.30
2018-06-08T12:12:33.279Z,84.30
2018-06-08T12:15:04.900Z,84.40
2018-06-08T12:17:33.331Z,84.80
2018-06-08T12:20:01.662Z,84.30
2018-06-08T12:22:30.160Z,84.40
2018-06-08T12:24:58.339Z,83.60
2018-06-08T12:27:27.325Z,83.90
2018-06-08T12:29:55.810Z,82.60
2018-06-08T12:32:24.342Z,81.70
2018-06-08T12:34:54.067Z,81.40
2018-06-08T12:37:22.716Z,81.30
2018-06-08T12:39:54.082Z,82.00
2018-06-08T12:42:23.825Z,81.60
2018-06-08T12:47:20.265Z,81.50
2018-06-08T12:49:50.022Z,81.00
2018-06-08T12:52:20.101Z,81.50
2018-06-08T12:54:48.711Z,79.80
2018-06-08T12:57:19.586Z,78.90
2018-06-08T12:59:49.138Z,78.70
2018-06-08T13:02:17.530Z,78.30
2018-06-08T13:04:46.730Z,78.20
2018-06-08T13:07:16.197Z,78.20
2018-06-08T13:09:44.292Z,78.40
2018-06-08T13:12:14.512Z,78.00
2018-06-08T13:14:43.685Z,78.30
2018-06-08T13:17:13.718Z,78.40
2018-06-08T13:19:42.606Z,78.40
2018-06-08T13:22:13.158Z,77.70
2018-06-08T13:24:41.424Z,78.90
2018-06-08T13:27:10.105Z,76.40
2018-06-08T13:29:38.603Z,76.00
2018-06-08T13:32:06.741Z,75.60
2018-06-08T13:34:35.066Z,74.00
2018-06-08T13:37:03.232Z,73.80
2018-06-08T13:39:31.905Z,74.90
2018-06-08T13:41:59.998Z,75.90
2018-06-08T13:44:28.658Z,77.60
2018-06-08T13:46:58.524Z,77.60
2018-06-08T13:49:26.816Z,77.90
2018-06-08T13:51:56.778Z,78.60
2018-06-08T13:54:29.681Z,78.20
2018-06-08T13:56:58.271Z,77.80
2018-06-08T13:59:28.745Z,77.50
2018-06-08T14:01:59.200Z,77.40
2018-06-08T14:04:28.807Z,77.30
2018-06-08T14:06:58.185Z,76.60
2018-06-08T14:09:27.678Z,76.90
2018-06-08T14:11:58.544Z,76.50
2018-06-08T14:14:30.381Z,76.00
2018-06-08T14:16:58.637Z,74.90
2018-06-08T14:19:27.012Z,74.00
2018-06-08T14:21:55.394Z,74.80
2018-06-08T14:24:23.787Z,73.00
2018-06-08T14:26:53.501Z,73.60
2018-06-08T14:29:22.270Z,73.40
2018-06-08T14:31:51.214Z,76.90
2018-06-08T14:34:20.595Z,79.00
2018-06-08T14:36:50.648Z,80.60
2018-06-08T14:39:19.023Z,81.10
2018-06-08T14:41:47.662Z,81.40
2018-06-08T14:44:16.123Z,81.90
2018-06-08T14:46:46.703Z,82.00
2018-06-08T14:49:23.745Z,81.10
2018-06-08T14:51:55.664Z,79.70
2018-06-08T14:54:25.034Z,79.70
2018-06-08T14:56:56.535Z,79.70
2018-06-08T14:59:35.241Z,80.30
2018-06-08T15:02:06.112Z,81.60
2018-06-08T15:04:37.351Z,83.60
2018-06-08T15:07:07.782Z,83.90
2018-06-08T15:09:40.092Z,85.10
2018-06-08T15:12:11.205Z,85.20
2018-06-08T15:14:41.219Z,82.80
2018-06-08T15:17:10.348Z,84.60
2018-06-08T15:19:40.101Z,86.20
2018-06-08T15:25:01.452Z,90.00
2018-06-08T15:27:31.070Z,90.70
2018-06-08T15:30:01.596Z,91.10
2018-06-08T15:32:32.217Z,91.30
2018-06-08T15:35:02.381Z,91.90
2018-06-08T15:37:31.790Z,92.00
2018-06-08T15:40:00.152Z,91.30
2018-06-08T15:42:29.223Z,91.40
2018-06-08T15:44:57.770Z,91.50
2018-06-08T15:47:26.174Z,94.20
2018-06-08T15:49:56.218Z,94.50
2018-06-08T15:54:56.941Z,96.60
2018-06-08T15:57:25.374Z,97.70
2018-06-08T15:59:53.849Z,98.10
2018-06-08T16:02:23.134Z,99.40
2018-06-08T16:04:53.110Z,99.90
2018-06-08T16:07:21.239Z,99.90
2018-06-08T16:09:50.261Z,99.90
2018-06-08T16:12:21.687Z,99.90
2018-06-08T16:14:50.000Z,99.90
2018-06-08T16:17:20.311Z,99.90
2018-06-08T16:19:48.744Z,99.90
2018-06-08T16:22:21.265Z,99.90
2018-06-08T16:24:50.464Z,99.90
2018-06-08T16:27:20.336Z,99.90
2018-06-08T16:29:48.610Z,99.90
2018-06-08T16:32:18.406Z,99.90
2018-06-08T16:34:47.355Z,99.90
2018-06-08T16:37:17.083Z,99.90
2018-06-08T16:39:45.860Z,99.90
2018-06-08T16:42:18.462Z,99.90
2018-06-08T16:44:48.377Z,99.90
2018-06-08T16:47:16.673Z,99.90
2018-06-08T16:49:46.002Z,99.90
2018-06-08T16:52:14.163Z,99.90
2018-06-08T16:54:42.331Z,99.90
2018-06-08T16:57:10.491Z,99.90
2018-06-08T16:59:42.768Z,99.90
2018-06-08T17:02:11.479Z,99.90
2018-06-08T17:07:11.749Z,99.90
2018-06-08T17:09:41.210Z,99.90
2018-06-08T17:14:43.272Z,99.90
2018-06-08T17:17:12.452Z,99.90
2018-06-08T17:19:40.498Z,99.90
2018-06-08T17:22:11.635Z,99.90
2018-06-08T17:24:39.762Z,99.90
2018-06-08T17:27:08.119Z,99.90
2018-06-08T17:29:39.219Z,99.90
2018-06-08T17:32:11.649Z,99.90
2018-06-08T17:34:42.078Z,99.90
2018-06-08T17:37:10.414Z,99.90
2018-06-08T17:39:39.431Z,99.90
2018-06-08T17:42:09.932Z,99.90
2018-06-08T17:44:38.861Z,99.90
2018-06-08T17:47:11.708Z,99.90
2018-06-08T17:49:40.081Z,99.90
2018-06-08T17:52:10.712Z,99.90
2018-06-08T17:54:40.605Z,99.90
2018-06-08T17:57:10.186Z,99.90
2018-06-08T18:02:08.843Z,99.90
2018-06-08T18:04:40.324Z,99.90
2018-06-08T18:09:38.740Z,99.90
2018-06-08T18:12:12.327Z,99.90
2018-06-08T18:14:42.624Z,99.90
2018-06-08T18:17:16.632Z,99.90
2018-06-08T18:19:45.470Z,99.90
2018-06-08T18:22:14.435Z,99.90
2018-06-08T18:24:45.391Z,99.90
2018-06-08T18:27:14.791Z,99.90
2018-06-08T18:31:51.646Z,99.90
2018-06-08T18:34:22.524Z,99.90
2018-06-08T18:36:53.809Z,99.90
2018-06-08T18:39:22.594Z,99.90
2018-06-08T18:41:51.363Z,99.90
2018-06-08T18:44:20.072Z,99.90
2018-06-08T18:46:50.589Z,99.90
2018-06-08T18:49:22.799Z,99.90
2018-06-08T18:52:02.767Z,99.90
2018-06-08T18:54:32.013Z,99.90
2018-06-08T18:57:01.930Z,99.90
2018-06-08T18:59:32.578Z,99.90
2018-06-08T19:02:03.916Z,99.90
2018-06-08T19:04:34.027Z,99.90
2018-06-08T19:07:02.546Z,99.90
2018-06-08T19:09:33.900Z,99.90
2018-06-08T19:12:03.658Z,99.90
2018-06-08T19:17:03.413Z,99.90
2018-06-08T19:19:33.536Z,99.90
2018-06-08T19:22:04.011Z,99.90
2018-06-08T19:24:34.161Z,99.90
2018-06-08T19:27:03.179Z,99.90
2018-06-08T19:29:31.862Z,99.90
2018-06-08T19:32:00.410Z,99.90
2018-06-08T19:34:28.812Z,99.90
2018-06-08T19:36:57.417Z,99.90
2018-06-08T19:39:27.864Z,99.90
2018-06-08T19:41:57.366Z,99.90
2018-06-08T19:44:26.112Z,99.90
2018-06-08T19:46:56.466Z,99.90
2018-06-08T19:49:43.236Z,99.90
2018-06-08T19:52:11.744Z,99.90
2018-06-08T19:54:41.217Z,99.90
2018-06-08T19:57:09.780Z,99.90
2018-06-08T19:59:40.438Z,99.90
2018-06-08T20:02:12.086Z,99.90
2018-06-08T20:04:43.288Z,99.90
2018-06-08T20:07:13.346Z,99.90
2018-06-08T20:09:44.534Z,99.90
2018-06-08T20:14:47.004Z,99.90
2018-06-08T20:17:16.911Z,99.90
2018-06-08T20:19:50.103Z,99.90
2018-06-08T20:25:43.055Z,99.90
2018-06-08T20:28:12.056Z,99.90
2018-06-08T20:30:41.252Z,99.90
2018-06-08T20:33:10.392Z,99.90
2018-06-08T20:35:50.601Z,99.90
2018-06-08T20:38:20.306Z,99.90
2018-06-08T20:46:47.870Z,99.90
2018-06-08T20:49:33.035Z,99.90
2018-06-08T20:52:24.124Z,99.90
2018-06-08T20:54:53.822Z,99.90
2018-06-08T20:57:32.017Z,99.90
2018-06-08T21:00:01.315Z,99.90
2018-06-08T21:02:29.971Z,99.90
2018-06-08T21:05:40.378Z,99.90
2018-06-08T21:08:10.373Z,99.90
2018-06-08T21:10:44.090Z,99.90
2018-06-08T21:13:14.667Z,99.90
2018-06-08T21:16:06.105Z,99.90
2018-06-08T21:18:34.709Z,99.90
2018-06-08T21:21:04.470Z,99.90
2018-06-08T21:23:46.224Z,99.90
2018-06-08T21:26:17.329Z,99.90
2018-06-08T21:28:48.392Z,99.90
2018-06-08T21:31:17.487Z,99.90
2018-06-08T21:33:53.815Z,99.90
2018-06-08T21:36:26.598Z,99.90
2018-06-08T21:39:04.566Z,99.90
2018-06-08T21:41:33.187Z,99.90
2018-06-08T21:44:03.794Z,99.90
2018-06-08T21:46:34.348Z,99.90
2018-06-08T21:49:02.931Z,99.90
2018-06-08T21:51:33.573Z,99.90
2018-06-08T21:54:02.697Z,99.90
2018-06-08T21:56:35.274Z,99.90
2018-06-08T21:59:03.743Z,99.90
2018-06-08T22:01:32.043Z,99.90
2018-06-08T22:04:02.369Z,99.90
2018-06-08T22:06:31.251Z,99.90
2018-06-08T22:08:59.693Z,99.90
2018-06-08T22:11:29.502Z,99.90
2018-06-08T22:13:58.774Z,99.90
2018-06-08T22:16:33.479Z,99.90
2018-06-08T22:19:03.475Z,99.90
2018-06-08T22:21:34.367Z,99.90
2018-06-08T22:24:03.175Z,99.90
2018-06-08T22:26:32.647Z,99.90
2018-06-08T22:29:01.399Z,99.90
2018-06-08T22:31:29.541Z,99.90
2018-06-08T22:33:58.685Z,99.90
2018-06-08T22:36:27.286Z,99.90
2018-06-08T22:38:55.863Z,99.90
2018-06-08T22:41:26.700Z,99.90
2018-06-08T22:43:55.406Z,99.90
2018-06-08T22:46:24.771Z,99.90
2018-06-08T22:48:53.887Z,99.90
2018-06-08T22:51:25.040Z,99.90
2018-06-08T22:53:54.292Z,99.90
2018-06-08T22:56:22.906Z,99.90
2018-06-08T22:58:51.062Z,99.90
2018-06-08T23:01:19.521Z,99.90
2018-06-08T23:03:48.255Z,99.90
2018-06-08T23:06:16.997Z,99.90
2018-06-08T23:08:45.326Z,99.90
2018-06-08T23:11:17.051Z,99.90
2018-06-08T23:13:45.307Z,99.90
2018-06-08T23:16:13.512Z,99.90
2018-06-08T23:18:43.431Z,99.90
2018-06-08T23:21:12.170Z,99.90
2018-06-08T23:23:40.305Z,99.90
2018-06-08T23:26:08.661Z,99.90
2018-06-08T23:28:38.109Z,99.90
2018-06-08T23:31:07.183Z,99.90
2018-06-08T23:33:35.347Z,99.90
2018-06-08T23:36:03.696Z,99.90
2018-06-08T23:38:31.952Z,99.90
2018-06-08T23:41:00.418Z,99.90
2018-06-08T23:43:29.049Z,99.90
2018-06-08T23:45:57.535Z,99.90
2018-06-08T23:48:26.038Z,99.90
2018-06-08T23:50:54.899Z,99.90
2018-06-08T23:53:23.363Z,99.90
2018-06-08T23:55:51.897Z,99.90
2018-06-08T23:58:20.156Z,99.90
